createdAt,value
2019-05-12T00:00:07.953Z,8.00
2019-05-12T00:01:08.615Z,4.00
2019-05-12T00:02:07.698Z,8.00
2019-05-12T00:03:08.469Z,8.00
2019-05-12T00:04:08.236Z,8.00
2019-05-12T00:05:08.558Z,8.00
2019-05-12T00:06:08.626Z,8.00
2019-05-12T00:07:08.567Z,8.00
2019-05-12T00:08:08.282Z,8.00
2019-05-12T00:09:08.355Z,8.00
2019-05-12T00:10:08.417Z,8.00
2019-05-12T00:11:08.797Z,8.00
2019-05-12T00:12:08.230Z,8.00
2019-05-12T00:13:08.389Z,8.00
2019-05-12T00:14:08.466Z,8.00
2019-05-12T00:15:08.247Z,8.00
2019-05-12T00:16:08.602Z,8.00
2019-05-12T00:17:08.195Z,8.00
2019-05-12T00:18:08.844Z,8.00
2019-05-12T00:19:06.267Z,8.00
2019-05-12T00:20:08.329Z,8.00
2019-05-12T00:21:08.655Z,8.00
2019-05-12T00:22:07.678Z,8.00
2019-05-12T00:23:22.391Z,8.00
2019-05-12T00:24:08.026Z,8.00
2019-05-12T00:25:08.629Z,8.00
2019-05-12T00:26:07.937Z,8.00
2019-05-12T00:27:08.427Z,8.00
2019-05-12T00:28:07.835Z,8.00
2019-05-12T00:29:07.694Z,8.00
2019-05-12T00:30:09.651Z,8.00
2019-05-12T00:31:08.265Z,8.00
2019-05-12T00:32:08.458Z,8.00
2019-05-12T00:33:08.945Z,8.00
2019-05-12T00:34:07.751Z,8.00
2019-05-12T00:35:07.799Z,8.00
2019-05-12T00:36:08.031Z,8.00
2019-05-12T00:37:08.194Z,8.00
2019-05-12T00:38:08.655Z,8.00
2019-05-12T00:39:07.969Z,8.00
2019-05-12T00:40:08.211Z,8.00
2019-05-12T00:41:06.094Z,8.00
2019-05-12T00:42:07.826Z,8.00
2019-05-12T00:43:08.465Z,8.00
2019-05-12T00:44:08.198Z,8.00
2019-05-12T00:45:08.150Z,8.00
2019-05-12T00:46:07.955Z,8.00
2019-05-12T00:47:08.043Z,8.00
2019-05-12T00:48:08.731Z,8.00
2019-05-12T00:49:08.071Z,8.00
2019-05-12T00:50:08.042Z,8.00
2019-05-12T00:51:07.735Z,8.00
2019-05-12T00:52:08.014Z,8.00
2019-05-12T00:53:08.619Z,8.00
2019-05-12T00:54:05.992Z,8.00
2019-05-12T00:55:07.982Z,8.00
2019-05-12T00:56:08.314Z,8.00
2019-05-12T00:57:07.759Z,8.00
2019-05-12T00:58:08.183Z,8.00
2019-05-12T00:59:08.129Z,8.00
2019-05-12T01:00:05.946Z,8.00
2019-05-12T01:01:08.162Z,8.00
2019-05-12T01:02:07.922Z,4.00
2019-05-12T01:03:08.413Z,8.00
2019-05-12T01:04:08.521Z,8.00
2019-05-12T01:05:08.388Z,8.00
2019-05-12T01:06:08.242Z,8.00
2019-05-12T01:07:05.892Z,8.00
2019-05-12T01:08:08.489Z,8.00
2019-05-12T01:09:08.551Z,8.00
2019-05-12T01:10:05.867Z,8.00
2019-05-12T01:11:05.858Z,8.00
2019-05-12T01:12:07.814Z,8.00
2019-05-12T01:13:08.268Z,8.00
2019-05-12T01:14:05.838Z,8.00
2019-05-12T01:15:07.481Z,8.00
2019-05-12T01:16:07.969Z,8.00
2019-05-12T01:17:05.809Z,8.00
2019-05-12T01:18:05.802Z,8.00
2019-05-12T01:19:07.938Z,8.00
2019-05-12T01:20:05.786Z,8.00
2019-05-12T01:21:07.744Z,8.00
2019-05-12T01:22:07.626Z,8.00
2019-05-12T01:23:08.219Z,8.00
2019-05-12T01:24:08.319Z,8.00
2019-05-12T01:25:08.360Z,8.00
2019-05-12T01:26:05.740Z,8.00
2019-05-12T01:27:05.731Z,8.00
2019-05-12T01:28:07.946Z,8.00
2019-05-12T01:29:05.715Z,8.00
2019-05-12T01:30:05.709Z,8.00
2019-05-12T01:31:05.698Z,8.00
2019-05-12T01:32:07.937Z,8.00
2019-05-12T01:33:08.263Z,8.00
2019-05-12T01:34:07.938Z,8.00
2019-05-12T01:35:07.958Z,8.00
2019-05-12T01:36:07.822Z,8.00
2019-05-12T01:37:07.878Z,8.00
2019-05-12T01:38:07.752Z,8.00
2019-05-12T01:39:07.744Z,8.00
2019-05-12T01:40:05.631Z,8.00
2019-05-12T01:41:05.632Z,8.00
2019-05-12T01:42:05.614Z,8.00
2019-05-12T01:43:08.229Z,8.00
2019-05-12T01:44:05.599Z,8.00
2019-05-12T01:45:05.595Z,8.00
2019-05-12T01:46:07.887Z,8.00
2019-05-12T01:47:08.232Z,8.00
2019-05-12T01:48:08.314Z,8.00
2019-05-12T01:49:07.980Z,8.00
2019-05-12T01:50:05.554Z,8.00
2019-05-12T01:51:05.544Z,8.00
2019-05-12T01:52:05.541Z,8.00
2019-05-12T01:53:07.923Z,8.00
2019-05-12T01:54:11.700Z,8.00
2019-05-12T01:55:05.515Z,8.00
2019-05-12T01:56:07.712Z,8.00
2019-05-12T01:57:05.503Z,8.00
2019-05-12T01:58:05.498Z,8.00
2019-05-12T01:59:05.482Z,8.00
2019-05-12T02:00:07.929Z,8.00
2019-05-12T02:01:05.464Z,8.00
2019-05-12T02:02:05.460Z,8.00
2019-05-12T02:03:05.462Z,8.00
2019-05-12T02:04:07.631Z,8.00
2019-05-12T02:05:08.241Z,8.00
2019-05-12T02:06:05.427Z,8.00
2019-05-12T02:07:05.427Z,8.00
2019-05-12T02:08:05.410Z,8.00
2019-05-12T02:09:05.407Z,8.00
2019-05-12T02:10:05.400Z,8.00
2019-05-12T02:11:07.849Z,8.00
2019-05-12T02:12:05.390Z,8.00
2019-05-12T02:13:07.733Z,8.00
2019-05-12T02:14:05.371Z,8.00
2019-05-12T02:15:07.993Z,8.00
2019-05-12T02:16:05.352Z,8.00
2019-05-12T02:17:05.353Z,8.00
2019-05-12T02:18:05.351Z,8.00
2019-05-12T02:19:05.330Z,8.00
2019-05-12T02:20:07.615Z,8.00
2019-05-12T02:21:05.317Z,8.00
2019-05-12T02:22:05.305Z,8.00
2019-05-12T02:23:05.299Z,8.00
2019-05-12T02:24:07.599Z,8.00
2019-05-12T02:25:07.936Z,8.00
2019-05-12T02:26:05.279Z,8.00
2019-05-12T02:27:05.266Z,8.00
2019-05-12T02:28:05.267Z,8.00
2019-05-12T02:29:07.700Z,8.00
2019-05-12T02:30:09.289Z,8.00
2019-05-12T02:31:05.235Z,8.00
2019-05-12T02:32:05.230Z,8.00
2019-05-12T02:33:05.433Z,8.00
2019-05-12T02:34:05.774Z,8.00
2019-05-12T02:35:05.877Z,8.00
2019-05-12T02:36:05.202Z,8.00
2019-05-12T02:37:05.578Z,8.00
2019-05-12T02:38:05.503Z,8.00
2019-05-12T02:39:05.421Z,8.00
2019-05-12T02:40:05.235Z,8.00
2019-05-12T02:41:05.160Z,8.00
2019-05-12T02:42:05.329Z,8.00
2019-05-12T02:43:05.843Z,8.00
2019-05-12T02:44:05.522Z,8.00
2019-05-12T02:45:05.695Z,8.00
2019-05-12T02:46:05.134Z,8.00
2019-05-12T02:47:05.356Z,8.00
2019-05-12T02:48:05.645Z,8.00
2019-05-12T02:49:05.335Z,8.00
2019-05-12T02:50:05.397Z,8.00
2019-05-12T02:51:05.641Z,8.00
2019-05-12T02:52:05.245Z,8.00
2019-05-12T02:53:05.510Z,8.00
2019-05-12T02:54:05.523Z,8.00
2019-05-12T02:55:06.398Z,8.00
2019-05-12T02:56:05.309Z,8.00
2019-05-12T02:57:05.038Z,8.00
2019-05-12T02:58:05.921Z,8.00
2019-05-12T02:59:05.547Z,8.00
2019-05-12T03:00:05.351Z,8.00
2019-05-12T03:01:05.617Z,4.00
2019-05-12T03:02:05.412Z,8.00
2019-05-12T03:03:05.544Z,8.00
2019-05-12T03:04:05.831Z,8.00
2019-05-12T03:05:05.701Z,8.00
2019-05-12T03:06:05.661Z,8.00
2019-05-12T03:07:06.504Z,12.00
2019-05-12T03:08:05.255Z,8.00
2019-05-12T03:09:05.056Z,8.00
2019-05-12T03:10:05.269Z,4.00
2019-05-12T03:11:06.063Z,4.00
2019-05-12T03:12:05.867Z,8.00
2019-05-12T03:13:05.051Z,8.00
2019-05-12T03:14:04.915Z,8.00
2019-05-12T03:15:05.626Z,8.00
2019-05-12T03:16:05.264Z,8.00
2019-05-12T03:17:04.900Z,12.00
2019-05-12T03:18:40.784Z,8.00
2019-05-12T03:19:05.402Z,12.00
2019-05-12T03:20:05.171Z,12.00
2019-05-12T03:21:05.792Z,12.00
2019-05-12T03:22:05.257Z,16.00
2019-05-12T03:23:06.365Z,12.00
2019-05-12T03:24:06.049Z,16.00
2019-05-12T03:25:15.341Z,16.00
2019-05-12T03:26:05.337Z,16.00
2019-05-12T03:27:04.814Z,20.00
2019-05-12T03:28:08.142Z,20.00
2019-05-12T03:29:05.999Z,24.00
2019-05-12T03:30:09.820Z,24.00
2019-05-12T03:31:07.794Z,28.00
2019-05-12T03:32:08.217Z,28.00
2019-05-12T03:33:09.329Z,32.00
2019-05-12T03:34:09.214Z,32.00
2019-05-12T03:35:08.666Z,36.00
2019-05-12T03:36:08.893Z,44.00
2019-05-12T03:37:07.817Z,48.00
2019-05-12T03:38:04.736Z,52.00
2019-05-12T03:39:04.717Z,56.00
2019-05-12T03:40:05.594Z,60.00
2019-05-12T03:41:05.481Z,68.00
2019-05-12T03:42:05.290Z,72.00
2019-05-12T03:43:05.608Z,76.00
2019-05-12T03:44:05.260Z,84.00
2019-05-12T03:45:04.940Z,84.00
2019-05-12T03:46:05.434Z,92.00
2019-05-12T03:47:05.185Z,92.00
2019-05-12T03:48:04.650Z,96.00
2019-05-12T03:49:05.504Z,96.00
2019-05-12T03:50:04.903Z,100.00
2019-05-12T03:51:05.737Z,104.00
2019-05-12T03:52:05.203Z,112.00
2019-05-12T03:53:10.104Z,112.00
2019-05-12T03:54:05.214Z,120.00
2019-05-12T03:55:05.603Z,128.00
2019-05-12T03:56:04.698Z,132.00
2019-05-12T03:57:04.707Z,144.00
2019-05-12T03:58:04.760Z,160.00
2019-05-12T03:59:05.097Z,176.00
2019-05-12T04:00:05.318Z,184.00
2019-05-12T04:01:04.894Z,208.00
2019-05-12T04:02:04.957Z,220.00
2019-05-12T04:03:05.030Z,240.00
2019-05-12T04:04:05.262Z,260.00
2019-05-12T04:05:05.411Z,276.00
2019-05-12T04:06:04.964Z,308.00
2019-05-12T04:07:05.319Z,336.00
2019-05-12T04:08:05.651Z,372.00
2019-05-12T04:09:04.801Z,400.00
2019-05-12T04:10:05.406Z,436.00
2019-05-12T04:11:05.495Z,460.00
2019-05-12T04:12:05.356Z,480.00
2019-05-12T04:13:04.861Z,492.00
2019-05-12T04:14:05.529Z,508.00
2019-05-12T04:15:05.369Z,532.00
2019-05-12T04:16:04.983Z,556.00
2019-05-12T04:17:04.944Z,576.00
2019-05-12T04:18:05.870Z,604.00
2019-05-12T04:19:05.492Z,628.00
2019-05-12T04:20:04.993Z,648.00
2019-05-12T04:21:05.524Z,668.00
2019-05-12T04:22:05.518Z,680.00
2019-05-12T04:23:06.026Z,692.00
2019-05-12T04:24:05.738Z,700.00
2019-05-12T04:25:06.072Z,712.00
2019-05-12T04:26:10.961Z,716.00
2019-05-12T04:27:05.391Z,712.00
2019-05-12T04:28:04.941Z,720.00
2019-05-12T04:29:05.269Z,728.00
2019-05-12T04:30:05.469Z,732.00
2019-05-12T04:31:05.500Z,740.00
2019-05-12T04:32:05.246Z,748.00
2019-05-12T04:33:04.908Z,768.00
2019-05-12T04:34:05.344Z,800.00
2019-05-12T04:35:04.880Z,816.00
2019-05-12T04:36:05.550Z,816.00
2019-05-12T04:37:04.643Z,808.00
2019-05-12T04:38:04.765Z,800.00
2019-05-12T04:39:04.400Z,792.00
2019-05-12T04:40:05.416Z,796.00
2019-05-12T04:41:05.853Z,800.00
2019-05-12T04:42:05.302Z,824.00
2019-05-12T04:43:05.934Z,844.00
2019-05-12T04:44:05.851Z,856.00
2019-05-12T04:45:04.649Z,856.00
2019-05-12T04:46:05.052Z,888.00
2019-05-12T04:47:05.613Z,932.00
2019-05-12T04:48:05.589Z,920.00
2019-05-12T04:49:05.229Z,920.00
2019-05-12T04:50:05.493Z,924.00
2019-05-12T04:51:04.990Z,904.00
2019-05-12T04:52:05.317Z,908.00
2019-05-12T04:53:05.967Z,928.00
2019-05-12T04:54:05.871Z,932.00
2019-05-12T04:55:04.897Z,964.00
2019-05-12T04:56:14.707Z,960.00
2019-05-12T04:57:04.286Z,964.00
2019-05-12T04:58:04.727Z,972.00
2019-05-12T04:59:04.931Z,976.00
2019-05-12T05:00:05.099Z,920.00
2019-05-12T05:01:06.344Z,932.00
2019-05-12T05:02:05.491Z,944.00
2019-05-12T05:03:05.113Z,968.00
2019-05-12T05:04:05.512Z,948.00
2019-05-12T05:05:05.334Z,932.00
2019-05-12T05:06:04.617Z,928.00
2019-05-12T05:07:04.555Z,924.00
2019-05-12T05:08:04.627Z,952.00
2019-05-12T05:09:05.104Z,976.00
2019-05-12T05:10:04.789Z,1008.00
2019-05-12T05:11:04.235Z,1028.00
2019-05-12T05:12:04.664Z,1060.00
2019-05-12T05:13:05.072Z,1120.00
2019-05-12T05:14:04.399Z,1176.00
2019-05-12T05:15:05.462Z,1208.00
2019-05-12T05:16:05.430Z,1180.00
2019-05-12T05:17:05.578Z,1248.00
2019-05-12T05:18:06.198Z,1224.00
2019-05-12T05:19:03.953Z,1176.00
2019-05-12T05:20:04.190Z,1192.00
2019-05-12T05:21:04.714Z,1168.00
2019-05-12T05:22:04.384Z,1208.00
2019-05-12T05:23:04.173Z,1200.00
2019-05-12T05:24:04.126Z,1240.00
2019-05-12T05:25:04.319Z,1188.00
2019-05-12T05:26:03.904Z,1208.00
2019-05-12T05:27:04.440Z,1292.00
2019-05-12T05:28:04.225Z,1292.00
2019-05-12T05:29:04.386Z,1348.00
2019-05-12T05:30:04.175Z,1372.00
2019-05-12T05:31:03.867Z,1404.00
2019-05-12T05:32:03.871Z,1204.00
2019-05-12T05:33:04.902Z,1296.00
2019-05-12T05:34:04.847Z,1280.00
2019-05-12T05:35:07.188Z,1052.00
2019-05-12T05:36:03.828Z,1040.00
2019-05-12T05:37:05.217Z,1092.00
2019-05-12T05:38:04.440Z,1148.00
2019-05-12T05:39:04.313Z,1140.00
2019-05-12T05:40:04.068Z,1316.00
2019-05-12T05:41:06.072Z,1480.00
2019-05-12T05:42:04.570Z,1928.00
2019-05-12T05:43:12.389Z,1976.00
2019-05-12T05:44:03.767Z,2360.00
2019-05-12T05:45:04.854Z,2068.00
2019-05-12T05:46:07.801Z,2308.00
2019-05-12T05:47:04.404Z,2440.00
2019-05-12T05:48:07.466Z,2224.00
2019-05-12T05:49:04.305Z,2408.00
2019-05-12T05:50:04.784Z,2376.00
2019-05-12T05:51:05.673Z,2528.00
2019-05-12T05:52:03.708Z,2516.00
2019-05-12T05:53:04.199Z,2412.00
2019-05-12T05:54:04.093Z,2320.00
2019-05-12T05:55:05.798Z,2364.00
2019-05-12T05:56:04.126Z,2456.00
2019-05-12T05:57:06.103Z,2608.00
2019-05-12T05:58:08.557Z,2596.00
2019-05-12T05:59:04.533Z,2324.00
2019-05-12T06:00:07.123Z,2364.00
2019-05-12T06:01:07.783Z,2408.00
2019-05-12T06:02:04.947Z,1812.00
2019-05-12T06:03:05.454Z,1488.00
2019-05-12T06:04:08.379Z,1368.00
2019-05-12T06:05:04.413Z,1428.00
2019-05-12T06:06:10.779Z,1608.00
2019-05-12T06:07:04.134Z,1580.00
2019-05-12T06:08:04.336Z,1740.00
2019-05-12T06:09:03.755Z,1700.00
2019-05-12T06:10:04.139Z,2004.00
2019-05-12T06:11:04.488Z,2052.00
2019-05-12T06:12:07.549Z,2136.00
2019-05-12T06:13:04.210Z,2124.00
2019-05-12T06:14:11.604Z,2276.00
2019-05-12T06:15:04.163Z,2372.00
2019-05-12T06:16:04.388Z,2488.00
2019-05-12T06:17:04.285Z,2624.00
2019-05-12T06:18:03.875Z,2440.00
2019-05-12T06:19:03.650Z,2496.00
2019-05-12T06:20:04.469Z,2228.00
2019-05-12T06:21:03.650Z,2180.00
2019-05-12T06:22:04.027Z,2648.00
2019-05-12T06:23:04.278Z,2168.00
2019-05-12T06:24:03.744Z,2160.00
2019-05-12T06:25:04.886Z,2160.00
2019-05-12T06:26:04.659Z,2104.00
2019-05-12T06:27:14.328Z,2284.00
2019-05-12T06:28:04.607Z,2384.00
2019-05-12T06:29:04.507Z,2408.00
2019-05-12T06:30:06.184Z,2324.00
2019-05-12T06:31:04.288Z,2480.00
2019-05-12T06:32:06.270Z,2156.00
2019-05-12T06:33:04.233Z,2132.00
2019-05-12T06:34:06.181Z,2108.00
2019-05-12T06:35:04.558Z,2036.00
2019-05-12T06:36:04.482Z,1900.00
2019-05-12T06:37:11.974Z,1880.00
2019-05-12T06:38:04.965Z,1832.00
2019-05-12T06:39:04.355Z,1816.00
2019-05-12T06:40:03.698Z,1892.00
2019-05-12T06:41:03.671Z,2076.00
2019-05-12T06:42:12.255Z,2220.00
2019-05-12T06:43:04.383Z,2276.00
2019-05-12T06:44:03.797Z,2320.00
2019-05-12T06:45:03.868Z,2544.00
2019-05-12T06:46:03.705Z,2520.00
2019-05-12T06:47:08.045Z,2568.00
2019-05-12T06:48:03.472Z,2536.00
2019-05-12T06:49:10.199Z,2652.00
2019-05-12T06:50:03.867Z,2744.00
2019-05-12T06:51:03.999Z,2728.00
2019-05-12T06:52:07.035Z,2936.00
2019-05-12T06:53:04.984Z,3048.00
2019-05-12T06:54:07.407Z,3060.00
2019-05-12T06:55:04.066Z,3052.00
2019-05-12T06:56:04.509Z,2916.00
2019-05-12T06:57:18.644Z,2952.00
2019-05-12T06:58:04.662Z,2948.00
2019-05-12T06:59:09.870Z,2912.00
2019-05-12T07:00:04.507Z,3028.00
2019-05-12T07:01:10.120Z,3032.00
2019-05-12T07:02:03.468Z,3204.00
2019-05-12T07:03:03.972Z,3336.00
2019-05-12T07:04:08.264Z,3564.00
2019-05-12T07:05:04.331Z,3668.00
2019-05-12T07:06:04.092Z,3420.00
2019-05-12T07:07:03.625Z,3452.00
2019-05-12T07:08:04.168Z,3340.00
2019-05-12T07:09:09.164Z,3260.00
2019-05-12T07:10:11.881Z,3200.00
2019-05-12T07:11:05.902Z,3220.00
2019-05-12T07:12:06.960Z,3472.00
2019-05-12T07:13:05.673Z,3492.00
2019-05-12T07:14:07.782Z,3552.00
2019-05-12T07:15:03.754Z,3488.00
2019-05-12T07:16:03.708Z,3392.00
2019-05-12T07:17:05.860Z,3360.00
2019-05-12T07:18:04.304Z,3436.00
2019-05-12T07:19:09.630Z,3568.00
2019-05-12T07:20:04.015Z,3380.00
2019-05-12T07:21:04.134Z,3556.00
2019-05-12T07:22:03.615Z,3604.00
2019-05-12T07:23:03.982Z,3280.00
2019-05-12T07:24:06.693Z,3232.00
2019-05-12T07:25:04.492Z,3632.00
2019-05-12T07:26:05.019Z,3548.00
2019-05-12T07:27:08.990Z,3916.00
2019-05-12T07:28:07.508Z,4628.00
2019-05-12T07:29:04.452Z,4336.00
2019-05-12T07:30:04.752Z,4700.00
2019-05-12T07:31:03.904Z,4324.00
2019-05-12T07:32:07.113Z,4960.00
2019-05-12T07:33:04.428Z,4528.00
2019-05-12T07:34:07.180Z,4768.00
2019-05-12T07:35:03.895Z,4880.00
2019-05-12T07:36:06.335Z,4580.00
2019-05-12T07:37:04.403Z,4392.00
2019-05-12T07:38:04.655Z,4312.00
2019-05-12T07:39:04.300Z,4404.00
2019-05-12T07:40:04.815Z,4724.00
2019-05-12T07:41:08.872Z,4836.00
2019-05-12T07:42:03.643Z,4332.00
2019-05-12T07:43:03.993Z,4164.00
2019-05-12T07:44:03.644Z,4216.00
2019-05-12T07:45:03.995Z,4776.00
2019-05-12T07:46:06.924Z,4880.00
2019-05-12T07:47:03.572Z,4216.00
2019-05-12T07:48:05.698Z,3816.00
2019-05-12T07:49:03.913Z,3852.00
2019-05-12T07:50:04.508Z,3984.00
2019-05-12T07:51:04.201Z,3552.00
2019-05-12T07:52:03.624Z,3492.00
2019-05-12T07:53:04.154Z,3268.00
2019-05-12T07:54:04.062Z,3360.00
2019-05-12T07:55:04.329Z,3052.00
2019-05-12T07:56:04.177Z,2904.00
2019-05-12T07:57:11.456Z,2564.00
2019-05-12T07:58:09.968Z,2432.00
2019-05-12T07:59:04.368Z,2520.00
2019-05-12T08:00:03.649Z,2380.00
2019-05-12T08:01:07.197Z,2616.00
2019-05-12T08:02:03.875Z,2168.00
2019-05-12T08:03:06.298Z,2504.00
2019-05-12T08:04:04.502Z,2160.00
2019-05-12T08:05:03.801Z,2176.00
2019-05-12T08:06:04.629Z,2068.00
2019-05-12T08:07:03.888Z,2136.00
2019-05-12T08:08:08.697Z,2032.00
2019-05-12T08:09:04.156Z,1952.00
2019-05-12T08:10:07.313Z,1988.00
2019-05-12T08:11:04.408Z,1980.00
2019-05-12T08:12:04.001Z,2040.00
2019-05-12T08:13:04.353Z,1988.00
2019-05-12T08:14:03.595Z,2108.00
2019-05-12T08:15:05.412Z,2188.00
2019-05-12T08:16:03.718Z,2408.00
2019-05-12T08:17:11.176Z,2284.00
2019-05-12T08:18:07.427Z,2496.00
2019-05-12T08:19:03.985Z,2644.00
2019-05-12T08:20:04.516Z,2480.00
2019-05-12T08:21:03.819Z,2464.00
2019-05-12T08:22:04.304Z,2356.00
2019-05-12T08:23:05.762Z,3100.00
2019-05-12T08:24:03.814Z,3492.00
2019-05-12T08:25:04.199Z,3604.00
2019-05-12T08:26:11.431Z,3520.00
2019-05-12T08:27:06.245Z,2628.00
2019-05-12T08:28:14.522Z,2164.00
2019-05-12T08:29:04.210Z,2004.00
2019-05-12T08:30:06.025Z,2156.00
2019-05-12T08:31:03.596Z,2504.00
2019-05-12T08:32:03.828Z,2356.00
2019-05-12T08:33:09.213Z,2476.00
2019-05-12T08:34:04.203Z,2792.00
2019-05-12T08:35:04.877Z,2828.00
2019-05-12T08:36:11.091Z,3244.00
2019-05-12T08:37:04.381Z,3576.00
2019-05-12T08:38:03.953Z,3560.00
2019-05-12T08:39:05.901Z,3972.00
2019-05-12T08:40:04.292Z,4076.00
2019-05-12T08:41:04.268Z,3916.00
2019-05-12T08:42:04.088Z,4008.00
2019-05-12T08:43:07.985Z,4672.00
2019-05-12T08:44:04.551Z,5248.00
2019-05-12T08:45:04.103Z,5492.00
2019-05-12T08:46:10.025Z,4672.00
2019-05-12T08:47:03.932Z,3780.00
2019-05-12T08:48:03.870Z,4072.00
2019-05-12T08:49:05.259Z,4228.00
2019-05-12T08:50:04.830Z,5000.00
2019-05-12T08:51:05.344Z,5532.00
2019-05-12T08:52:03.828Z,5208.00
2019-05-12T08:53:04.636Z,5892.00
2019-05-12T08:54:07.051Z,6520.00
2019-05-12T08:55:04.297Z,6512.00
2019-05-12T08:56:06.654Z,3968.00
2019-05-12T08:57:03.891Z,5640.00
2019-05-12T08:58:03.765Z,4492.00
2019-05-12T08:59:04.345Z,3960.00
2019-05-12T09:00:06.746Z,3156.00
2019-05-12T09:01:04.447Z,4932.00
2019-05-12T09:02:07.250Z,2228.00
2019-05-12T09:03:03.582Z,2372.00
2019-05-12T09:04:06.554Z,2564.00
2019-05-12T09:05:04.634Z,4060.00
2019-05-12T09:06:04.105Z,2596.00
2019-05-12T09:07:04.410Z,5008.00
2019-05-12T09:08:03.794Z,4644.00
2019-05-12T09:09:03.464Z,4672.00
2019-05-12T09:10:04.178Z,4764.00
2019-05-12T09:11:03.520Z,2112.00
2019-05-12T09:12:03.536Z,1940.00
2019-05-12T09:13:03.996Z,5020.00
2019-05-12T09:14:03.563Z,4964.00
2019-05-12T09:15:04.456Z,4988.00
2019-05-12T09:16:04.360Z,4988.00
2019-05-12T09:17:07.188Z,5128.00
2019-05-12T09:18:04.662Z,5160.00
2019-05-12T09:19:04.677Z,5072.00
2019-05-12T09:20:08.207Z,5216.00
2019-05-12T09:21:03.727Z,5292.00
2019-05-12T09:22:05.537Z,5484.00
2019-05-12T09:23:04.731Z,4704.00
2019-05-12T09:24:04.197Z,5424.00
2019-05-12T09:25:06.126Z,5464.00
2019-05-12T09:26:04.127Z,5504.00
2019-05-12T09:27:07.002Z,5380.00
2019-05-12T09:28:03.771Z,5584.00
2019-05-12T09:29:03.478Z,5568.00
2019-05-12T09:30:08.053Z,2752.00
2019-05-12T09:31:03.683Z,5432.00
2019-05-12T09:32:07.381Z,5996.00
2019-05-12T09:33:04.077Z,1744.00
2019-05-12T09:34:05.851Z,5480.00
2019-05-12T09:35:04.010Z,5424.00
2019-05-12T09:36:04.313Z,5452.00
2019-05-12T09:37:04.033Z,5492.00
2019-05-12T09:38:03.700Z,5520.00
2019-05-12T09:39:03.838Z,5640.00
2019-05-12T09:40:04.594Z,5656.00
2019-05-12T09:41:03.328Z,5676.00
2019-05-12T09:42:03.801Z,5608.00
2019-05-12T09:43:06.357Z,5116.00
2019-05-12T09:44:04.471Z,4800.00
2019-05-12T09:45:06.137Z,3756.00
2019-05-12T09:46:04.173Z,3004.00
2019-05-12T09:47:04.069Z,2604.00
2019-05-12T09:48:04.956Z,2440.00
2019-05-12T09:49:04.129Z,2444.00
2019-05-12T09:50:04.330Z,2428.00
2019-05-12T09:51:05.067Z,2356.00
2019-05-12T09:52:03.682Z,2328.00
2019-05-12T09:53:09.269Z,2464.00
2019-05-12T09:54:05.053Z,2396.00
2019-05-12T09:55:04.230Z,2336.00
2019-05-12T09:56:04.489Z,2336.00
2019-05-12T09:57:04.371Z,2304.00
2019-05-12T09:58:03.952Z,2328.00
2019-05-12T09:59:16.671Z,2344.00
2019-05-12T10:00:04.504Z,2532.00
2019-05-12T10:01:03.592Z,2584.00
2019-05-12T10:02:03.667Z,2500.00
2019-05-12T10:03:04.806Z,2452.00
2019-05-12T10:04:03.455Z,2348.00
2019-05-12T10:05:03.941Z,2384.00
2019-05-12T10:06:03.664Z,2400.00
2019-05-12T10:07:03.829Z,2464.00
2019-05-12T10:08:04.573Z,2588.00
2019-05-12T10:09:03.436Z,2688.00
2019-05-12T10:10:03.711Z,2920.00
2019-05-12T10:11:03.731Z,2984.00
2019-05-12T10:12:05.338Z,2428.00
2019-05-12T10:13:04.652Z,2512.00
2019-05-12T10:14:06.466Z,3016.00
2019-05-12T10:15:04.303Z,3000.00
2019-05-12T10:16:04.995Z,3040.00
2019-05-12T10:17:03.578Z,3116.00
2019-05-12T10:18:06.580Z,2192.00
2019-05-12T10:19:04.018Z,3564.00
2019-05-12T10:20:02.530Z,5352.00
2019-05-12T10:21:02.490Z,13788.00
2019-05-12T10:22:02.490Z,20992.00
2019-05-12T10:23:04.398Z,20672.00
2019-05-12T10:24:04.944Z,21888.00
2019-05-12T10:25:04.032Z,22912.00
2019-05-12T10:26:09.459Z,22720.00
2019-05-12T10:27:03.849Z,23424.00
2019-05-12T10:28:11.145Z,22336.00
2019-05-12T10:29:14.138Z,22720.00
2019-05-12T10:30:11.444Z,24448.00
2019-05-12T10:31:04.174Z,24320.00
2019-05-12T10:32:04.037Z,25216.00
2019-05-12T10:33:03.696Z,24320.00
2019-05-12T10:34:03.418Z,23904.00
2019-05-12T10:35:02.493Z,25632.00
2019-05-12T10:36:06.868Z,20992.00
2019-05-12T10:37:04.171Z,7244.00
2019-05-12T10:38:06.294Z,2060.00
2019-05-12T10:39:04.263Z,23520.00
2019-05-12T10:40:03.701Z,16096.00
2019-05-12T10:41:04.250Z,25824.00
2019-05-12T10:42:02.508Z,26176.00
2019-05-12T10:43:04.420Z,28096.00
2019-05-12T10:44:04.092Z,30368.00
2019-05-12T10:45:04.271Z,29984.00
2019-05-12T10:46:04.238Z,30624.00
2019-05-12T10:47:04.479Z,30848.00
2019-05-12T10:48:03.598Z,29664.00
2019-05-12T10:49:03.971Z,28832.00
2019-05-12T10:50:02.546Z,31488.00
2019-05-12T10:51:02.554Z,35072.00
2019-05-12T10:52:03.883Z,34720.00
2019-05-12T10:53:04.516Z,34464.00
2019-05-12T10:54:11.794Z,36480.00
2019-05-12T10:55:04.438Z,34656.00
2019-05-12T10:56:02.574Z,34368.00
2019-05-12T10:57:04.946Z,37632.00
2019-05-12T10:58:06.399Z,38400.00
2019-05-12T10:59:04.268Z,34880.00
2019-05-12T11:00:04.128Z,34144.00
2019-05-12T11:01:05.232Z,37504.00
2019-05-12T11:02:03.547Z,37696.00
2019-05-12T11:03:10.218Z,35712.00
2019-05-12T11:04:03.939Z,35520.00
2019-05-12T11:05:02.633Z,36992.00
2019-05-12T11:06:07.142Z,36480.00
2019-05-12T11:07:04.677Z,37408.00
2019-05-12T11:08:06.383Z,42272.00
2019-05-12T11:09:03.791Z,26656.00
2019-05-12T11:10:14.918Z,43424.00
2019-05-12T11:11:04.219Z,41536.00
2019-05-12T11:12:03.458Z,39488.00
2019-05-12T11:13:08.712Z,39200.00
2019-05-12T11:14:03.949Z,41856.00
2019-05-12T11:15:06.638Z,44192.00
2019-05-12T11:16:03.778Z,43616.00
2019-05-12T11:17:07.915Z,44448.00
2019-05-12T11:18:02.698Z,46208.00
2019-05-12T11:19:06.352Z,44224.00
2019-05-12T11:20:04.140Z,7320.00
2019-05-12T11:21:03.588Z,13172.00
2019-05-12T11:22:03.653Z,3804.00
2019-05-12T11:23:03.567Z,4076.00
2019-05-12T11:24:03.833Z,48384.00
2019-05-12T11:25:04.362Z,38208.00
2019-05-12T11:26:03.900Z,50560.00
2019-05-12T11:27:04.125Z,43744.00
2019-05-12T11:28:03.784Z,45440.00
2019-05-12T11:29:03.791Z,46144.00
2019-05-12T11:30:04.295Z,45376.00
2019-05-12T11:31:02.766Z,44288.00
2019-05-12T11:32:02.772Z,43936.00
2019-05-12T11:33:04.350Z,45408.00
2019-05-12T11:34:04.840Z,47520.00
2019-05-12T11:35:04.115Z,50336.00
2019-05-12T11:36:04.397Z,53120.00
2019-05-12T11:37:03.450Z,46112.00
2019-05-12T11:38:04.392Z,41376.00
2019-05-12T11:39:03.674Z,51136.00
2019-05-12T11:40:04.311Z,53664.00
2019-05-12T11:41:04.249Z,54720.00
2019-05-12T11:42:04.190Z,53152.00
2019-05-12T11:43:04.042Z,54240.00
2019-05-12T11:44:03.962Z,54176.00
2019-05-12T11:45:02.852Z,54240.00
2019-05-12T11:46:02.856Z,55904.00
2019-05-12T11:47:03.661Z,54144.00
2019-05-12T11:48:07.975Z,54208.00
2019-05-12T11:49:04.377Z,56320.00
2019-05-12T11:50:05.055Z,58752.00
2019-05-12T11:51:03.950Z,57632.00
2019-05-12T11:52:09.678Z,56128.00
2019-05-12T11:53:04.258Z,58816.00
2019-05-12T11:54:03.628Z,58944.00
2019-05-12T11:55:02.919Z,55008.00
2019-05-12T11:56:07.709Z,52448.00
2019-05-12T11:57:02.933Z,50400.00
2019-05-12T11:58:06.800Z,48416.00
2019-05-12T11:59:02.947Z,43168.00
2019-05-12T12:00:05.303Z,29536.00
2019-05-12T12:01:04.697Z,29984.00
2019-05-12T12:02:02.965Z,4444.00
2019-05-12T12:03:12.083Z,8136.00
2019-05-12T12:04:03.719Z,14280.00
2019-05-12T12:05:02.987Z,4636.00
2019-05-12T12:06:02.995Z,3788.00
2019-05-12T12:07:03.001Z,5284.00
2019-05-12T12:08:03.922Z,4084.00
2019-05-12T12:09:03.937Z,4200.00
2019-05-12T12:10:03.699Z,6828.00
2019-05-12T12:11:03.931Z,4468.00
2019-05-12T12:12:07.182Z,4740.00
2019-05-12T12:13:03.772Z,4720.00
2019-05-12T12:14:06.414Z,4024.00
2019-05-12T12:15:04.678Z,3408.00
2019-05-12T12:16:06.879Z,3700.00
2019-05-12T12:17:03.045Z,4000.00
2019-05-12T12:18:12.407Z,4368.00
2019-05-12T12:19:05.756Z,6520.00
2019-05-12T12:20:03.781Z,3408.00
2019-05-12T12:21:07.646Z,4196.00
2019-05-12T12:22:04.395Z,4844.00
2019-05-12T12:23:06.536Z,4892.00
2019-05-12T12:24:03.947Z,5080.00
2019-05-12T12:25:10.924Z,7568.00